Main page
METAR-TAF:

METAR-TAF

Airports :

Jaipur International Airport

Jaipur, India

latitude: 26-49N, longitude: 075-48E, elevation: 385 m

Current weather observation

The report was made 19 minutes ago, at 17:30 UTC
Wind 4 kt from the North
Temperature 20°C
Humidity 64%
Pressure 1017 hPa
Visibility: 1200 m
smoke

METAR: VIJP 151730Z 36004KT 1200 R27/2000 FU NSC 20/13 Q1017 NOSIG

Time: 23:19 (17:49 UTC)

Forecast

The report was made 49 minutes ago, at 17:00 UTC
Forecast valid from 15 at 18 UTC to 16 at 24 UTC
Wind 3 kt from variable directions
Visibility: 2000 m
haze, smoke
Becoming
from 16 at 00 UTC to 16 at 02 UTC
Visibility: 1500 m
smoke
Becoming
from 16 at 04 UTC to 16 at 06 UTC
Wind 6 kt from the Northwest
Visibility: 3000 m
haze
Becoming
from 16 at 13 UTC to 16 at 15 UTC
Wind 3 kt from variable directions
Visibility: 2000 m
Few clouds at a height of 10000 ft
haze

TAF: VIJP 151700Z 1518/1624 VRB03KT 2000 HZ FU NSC BECMG 1600/1602 1500 FU BECMG 1604/1606 32006KT 3000 HZ BECMG 1613/1615 VRB03KT 2000 HZ FEW100

Weather observations and forecasts of more than 4000 airports (METAR and TAF reports).

The available stations are represented by yellow and red dots on the map.

Hover mouse over dot to see the name of the station.

Then click to see weather observations and forecasts.

To change the map : click on the green buttons with a black cross to zoom in, on the green button with a dash to zoom out, or on the green arrows for adjacent maps.


METAR-TAF: